createdAt,value
2022-10-04T00:00:45.660Z,1017.28
2022-10-04T00:01:45.764Z,1017.31
2022-10-04T00:02:45.690Z,1017.27
2022-10-04T00:03:45.625Z,1017.31
2022-10-04T00:04:45.633Z,1017.30
2022-10-04T00:05:45.603Z,1017.31
2022-10-04T00:06:45.600Z,1017.34
2022-10-04T00:07:45.619Z,1017.33
2022-10-04T00:08:45.573Z,1017.28
2022-10-04T00:09:45.559Z,1017.34
2022-10-04T00:10:45.545Z,1017.27
2022-10-04T00:11:45.555Z,1017.28
2022-10-04T00:12:45.527Z,1017.30
2022-10-04T00:13:45.530Z,1017.28
2022-10-04T00:14:45.497Z,1017.26
2022-10-04T00:15:45.539Z,1017.20
2022-10-04T00:16:45.475Z,1017.17
2022-10-04T00:17:45.470Z,1017.19
2022-10-04T00:18:45.452Z,1017.18
2022-10-04T00:19:45.451Z,1017.18
2022-10-04T00:20:45.433Z,1017.15
2022-10-04T00:21:45.437Z,1017.21
2022-10-04T00:22:45.413Z,1017.21
2022-10-04T00:23:45.421Z,1017.21
2022-10-04T00:24:45.413Z,1017.14
2022-10-04T00:25:45.380Z,1017.16
2022-10-04T00:26:45.361Z,1017.12
2022-10-04T00:27:45.355Z,1017.05
2022-10-04T00:28:45.340Z,1017.01
2022-10-04T00:29:45.350Z,1017.03
2022-10-04T00:30:45.329Z,1017.02
2022-10-04T00:31:45.566Z,1017.03
2022-10-04T00:32:45.301Z,1017.01
2022-10-04T00:33:45.285Z,1017.02
2022-10-04T00:34:45.293Z,1017.01
2022-10-04T00:35:45.268Z,1017.04
2022-10-04T00:36:45.248Z,1017.04
2022-10-04T00:37:45.242Z,1017.02
2022-10-04T00:38:45.225Z,1017.02
2022-10-04T00:39:45.244Z,1016.95
2022-10-04T00:40:45.213Z,1016.97
2022-10-04T00:41:45.235Z,1016.99
2022-10-04T00:42:45.187Z,1017.00
2022-10-04T00:43:45.172Z,1017.04
2022-10-04T00:44:45.156Z,1016.95
2022-10-04T00:45:45.227Z,1016.92
2022-10-04T00:46:45.136Z,1016.94
2022-10-04T00:47:45.129Z,1016.91
2022-10-04T00:48:45.132Z,1016.89
2022-10-04T00:49:45.109Z,1016.90
2022-10-04T00:50:45.090Z,1016.92
2022-10-04T00:51:45.097Z,1016.92
2022-10-04T00:52:45.081Z,1016.89
2022-10-04T00:53:45.056Z,1016.87
2022-10-04T00:54:45.056Z,1016.90
2022-10-04T00:55:45.055Z,1016.90
2022-10-04T00:56:45.029Z,1016.89
2022-10-04T00:57:45.009Z,1016.91
2022-10-04T00:58:45.008Z,1016.88
2022-10-04T00:59:44.992Z,1016.89
2022-10-04T01:00:45.013Z,1016.86
2022-10-04T01:01:45.372Z,1016.86
2022-10-04T01:02:44.973Z,1016.84
2022-10-04T01:03:44.941Z,1016.82
2022-10-04T01:04:44.944Z,1016.79
2022-10-04T01:05:44.919Z,1016.78
2022-10-04T01:06:44.916Z,1016.81
2022-10-04T01:07:44.903Z,1016.81
2022-10-04T01:08:44.893Z,1016.73
2022-10-04T01:09:44.871Z,1016.77
2022-10-04T01:10:44.894Z,1016.66
2022-10-04T01:11:44.880Z,1016.73
2022-10-04T01:12:44.863Z,1016.71
2022-10-04T01:13:44.827Z,1016.72
2022-10-04T01:14:44.817Z,1016.57
2022-10-04T01:15:44.870Z,1016.64
2022-10-04T01:16:44.794Z,1016.64
2022-10-04T01:17:44.790Z,1016.56
2022-10-04T01:18:44.772Z,1016.62
2022-10-04T01:19:44.763Z,1016.57
2022-10-04T01:20:44.743Z,1016.57
2022-10-04T01:21:44.779Z,1016.55
2022-10-04T01:22:44.736Z,1016.58
2022-10-04T01:23:44.740Z,1016.60
2022-10-04T01:24:44.698Z,1016.58
2022-10-04T01:25:44.708Z,1016.55
2022-10-04T01:26:44.680Z,1016.56
2022-10-04T01:27:44.713Z,1016.55
2022-10-04T01:28:44.656Z,1016.56
2022-10-04T01:29:44.658Z,1016.54
2022-10-04T01:30:44.633Z,1016.53
2022-10-04T01:31:44.927Z,1016.56
2022-10-04T01:32:45.452Z,1016.53
2022-10-04T01:33:44.617Z,1016.54
2022-10-04T01:34:44.590Z,1016.53
2022-10-04T01:35:44.577Z,1016.52
2022-10-04T01:36:44.575Z,1016.56
2022-10-04T01:37:44.562Z,1016.48
2022-10-04T01:38:44.555Z,1016.45
2022-10-04T01:39:44.537Z,1016.47
2022-10-04T01:40:44.536Z,1016.46
2022-10-04T01:41:44.520Z,1016.46
2022-10-04T01:42:44.496Z,1016.40
2022-10-04T01:43:44.513Z,1016.41
2022-10-04T01:44:44.471Z,1016.40
2022-10-04T01:45:44.469Z,1016.38
2022-10-04T01:46:44.562Z,1016.39
2022-10-04T01:47:44.457Z,1016.29
2022-10-04T01:48:44.482Z,1016.31
2022-10-04T01:49:44.417Z,1016.31
2022-10-04T01:50:44.411Z,1016.34
2022-10-04T01:51:44.400Z,1016.33
2022-10-04T01:52:44.386Z,1016.32
2022-10-04T01:53:44.381Z,1016.30
2022-10-04T01:54:44.358Z,1016.31
2022-10-04T01:55:44.355Z,1016.35
2022-10-04T01:56:44.345Z,1016.30
2022-10-04T01:57:44.333Z,1016.28
2022-10-04T01:58:44.340Z,1016.21
2022-10-04T01:59:44.328Z,1016.22
2022-10-04T02:00:44.342Z,1016.26
2022-10-04T02:01:44.578Z,1016.26
2022-10-04T02:02:44.268Z,1016.27
2022-10-04T02:03:44.413Z,1016.25
2022-10-04T02:04:44.417Z,1016.23
2022-10-04T02:05:44.244Z,1016.21
2022-10-04T02:06:44.258Z,1016.22
2022-10-04T02:07:44.228Z,1016.20
2022-10-04T02:08:44.671Z,1016.20
2022-10-04T02:09:44.253Z,1016.25
2022-10-04T02:10:44.186Z,1016.18
2022-10-04T02:11:44.442Z,1016.09
2022-10-04T02:12:44.168Z,1016.12
2022-10-04T02:13:44.204Z,1016.12
2022-10-04T02:14:44.143Z,1016.04
2022-10-04T02:15:44.194Z,1016.09
2022-10-04T02:16:44.112Z,1016.07
2022-10-04T02:17:44.108Z,1016.07
2022-10-04T02:18:44.096Z,1016.08
2022-10-04T02:19:44.092Z,1016.10
2022-10-04T02:20:44.087Z,1016.08
2022-10-04T02:21:44.192Z,1016.07
2022-10-04T02:22:44.039Z,1016.06
2022-10-04T02:23:44.034Z,1016.09
2022-10-04T02:24:44.014Z,1016.12
2022-10-04T02:25:44.006Z,1016.07
2022-10-04T02:26:44.003Z,1016.02
2022-10-04T02:27:44.012Z,1016.03
2022-10-04T02:28:43.977Z,1016.00
2022-10-04T02:29:43.966Z,1016.09
2022-10-04T02:30:43.977Z,1016.08
2022-10-04T02:31:44.338Z,1016.04
2022-10-04T02:32:43.956Z,1015.98
2022-10-04T02:33:43.942Z,1016.00
2022-10-04T02:34:43.902Z,1015.99
2022-10-04T02:35:43.912Z,1016.03
2022-10-04T02:36:43.919Z,1015.99
2022-10-04T02:37:43.874Z,1015.98
2022-10-04T02:38:43.857Z,1016.04
2022-10-04T02:39:43.851Z,1015.96
2022-10-04T02:40:43.866Z,1016.01
2022-10-04T02:41:44.114Z,1016.00
2022-10-04T02:42:43.932Z,1016.04
2022-10-04T02:43:43.811Z,1016.00
2022-10-04T02:44:43.791Z,1016.07
2022-10-04T02:45:43.780Z,1016.06
2022-10-04T02:46:43.822Z,1015.99
2022-10-04T02:47:43.826Z,1016.00
2022-10-04T02:48:43.761Z,1016.03
2022-10-04T02:49:43.736Z,1015.99
2022-10-04T02:50:43.725Z,1016.01
2022-10-04T02:51:43.988Z,1015.98
2022-10-04T02:52:43.703Z,1015.96
2022-10-04T02:53:43.712Z,1015.92
2022-10-04T02:54:43.695Z,1015.88
2022-10-04T02:55:43.676Z,1015.87
2022-10-04T02:56:43.651Z,1015.90
2022-10-04T02:57:43.652Z,1015.85
2022-10-04T02:58:43.636Z,1015.91
2022-10-04T02:59:43.622Z,1015.87
2022-10-04T03:00:43.675Z,1015.88
2022-10-04T03:01:44.090Z,1015.85
2022-10-04T03:02:43.644Z,1015.90
2022-10-04T03:03:43.596Z,1015.87
2022-10-04T03:04:43.561Z,1015.82
2022-10-04T03:05:43.570Z,1015.80
2022-10-04T03:06:43.541Z,1015.81
2022-10-04T03:07:43.528Z,1015.82
2022-10-04T03:08:43.534Z,1015.85
2022-10-04T03:09:43.509Z,1015.79
2022-10-04T03:10:43.494Z,1015.76
2022-10-04T03:11:43.750Z,1015.80
2022-10-04T03:12:43.508Z,1015.80
2022-10-04T03:13:43.478Z,1015.81
2022-10-04T03:14:43.445Z,1015.82
2022-10-04T03:15:43.502Z,1015.84
2022-10-04T03:16:43.425Z,1015.78
2022-10-04T03:17:43.452Z,1015.82
2022-10-04T03:18:43.411Z,1015.78
2022-10-04T03:19:43.432Z,1015.75
2022-10-04T03:20:43.383Z,1015.72
2022-10-04T03:21:43.569Z,1015.72
2022-10-04T03:22:46.721Z,1015.69
2022-10-04T03:23:43.348Z,1015.65
2022-10-04T03:24:43.382Z,1015.66
2022-10-04T03:25:43.348Z,1015.60
2022-10-04T03:26:43.338Z,1015.61
2022-10-04T03:27:43.303Z,1015.57
2022-10-04T03:28:43.295Z,1015.57
2022-10-04T03:29:43.293Z,1015.56
2022-10-04T03:30:43.271Z,1015.51
2022-10-04T03:31:43.626Z,1015.56
2022-10-04T03:32:43.245Z,1015.53
2022-10-04T03:33:43.240Z,1015.54
2022-10-04T03:34:43.224Z,1015.48
2022-10-04T03:35:43.227Z,1015.44
2022-10-04T03:36:43.213Z,1015.49
2022-10-04T03:37:43.205Z,1015.41
2022-10-04T03:38:43.178Z,1015.49
2022-10-04T03:39:43.183Z,1015.41
2022-10-04T03:40:43.158Z,1015.40
2022-10-04T03:41:43.402Z,1015.45
2022-10-04T03:42:43.170Z,1015.38
2022-10-04T03:43:43.120Z,1015.39
2022-10-04T03:44:43.120Z,1015.38
2022-10-04T03:45:43.106Z,1015.38
2022-10-04T03:46:43.098Z,1015.43
2022-10-04T03:47:43.071Z,1015.44
2022-10-04T03:48:43.067Z,1015.38
2022-10-04T03:49:46.191Z,1015.44
2022-10-04T03:50:44.040Z,1015.41
2022-10-04T03:51:43.336Z,1015.39
2022-10-04T03:52:43.022Z,1015.43
2022-10-04T03:53:43.040Z,1015.45
2022-10-04T03:54:42.997Z,1015.42
2022-10-04T03:55:43.010Z,1015.40
2022-10-04T03:56:42.984Z,1015.33
2022-10-04T03:57:42.963Z,1015.33
2022-10-04T03:58:42.948Z,1015.31
2022-10-04T03:59:42.964Z,1015.34
2022-10-04T04:00:42.999Z,1015.26
2022-10-04T04:01:43.221Z,1015.28
2022-10-04T04:02:45.962Z,1015.26
2022-10-04T04:03:42.892Z,1015.29
2022-10-04T04:04:42.881Z,1015.34
2022-10-04T04:05:42.904Z,1015.30
2022-10-04T04:06:42.879Z,1015.27
2022-10-04T04:07:42.873Z,1015.25
2022-10-04T04:08:42.840Z,1015.24
2022-10-04T04:09:42.821Z,1015.19
2022-10-04T04:10:42.812Z,1015.25
2022-10-04T04:11:42.977Z,1015.21
2022-10-04T04:12:42.809Z,1015.18
2022-10-04T04:13:42.777Z,1015.23
2022-10-04T04:14:42.769Z,1015.19
2022-10-04T04:15:42.777Z,1015.22
2022-10-04T04:16:42.784Z,1015.12
2022-10-04T04:17:42.744Z,1015.08
2022-10-04T04:18:42.724Z,1015.08
2022-10-04T04:19:42.731Z,1015.11
2022-10-04T04:20:42.708Z,1015.09
2022-10-04T04:21:43.040Z,1015.11
2022-10-04T04:22:42.688Z,1015.11
2022-10-04T04:23:42.689Z,1015.09
2022-10-04T04:24:42.687Z,1015.13
2022-10-04T04:25:42.640Z,1015.11
2022-10-04T04:26:42.630Z,1015.10
2022-10-04T04:27:42.623Z,1015.13
2022-10-04T04:28:42.610Z,1015.07
2022-10-04T04:29:42.592Z,1015.15
2022-10-04T04:30:42.586Z,1015.15
2022-10-04T04:31:42.818Z,1015.18
2022-10-04T04:32:42.577Z,1015.08
2022-10-04T04:33:42.545Z,1015.05
2022-10-04T04:34:42.545Z,1015.10
2022-10-04T04:35:42.530Z,1015.12
2022-10-04T04:36:42.562Z,1015.09
2022-10-04T04:37:42.513Z,1015.13
2022-10-04T04:38:42.493Z,1015.09
2022-10-04T04:39:42.518Z,1015.10
2022-10-04T04:40:42.477Z,1015.14
2022-10-04T04:41:45.705Z,1015.06
2022-10-04T04:42:43.476Z,1015.06
2022-10-04T04:43:42.443Z,1015.07
2022-10-04T04:44:42.432Z,1015.06
2022-10-04T04:45:42.467Z,1014.98
2022-10-04T04:46:42.423Z,1015.01
2022-10-04T04:47:42.393Z,1015.05
2022-10-04T04:48:42.413Z,1015.11
2022-10-04T04:49:42.369Z,1015.10
2022-10-04T04:50:42.393Z,1015.11
2022-10-04T04:51:42.652Z,1015.09
2022-10-04T04:52:42.338Z,1015.11
2022-10-04T04:53:42.322Z,1015.13
2022-10-04T04:54:42.321Z,1015.14
2022-10-04T04:56:02.402Z,1015.09
2022-10-04T04:56:43.294Z,1015.11
2022-10-04T04:57:42.283Z,1015.12
2022-10-04T04:58:42.271Z,1015.10
2022-10-04T04:59:42.282Z,1015.14
2022-10-04T05:00:42.272Z,1015.08
2022-10-04T05:01:42.552Z,1015.07
2022-10-04T05:02:42.220Z,1015.10
2022-10-04T05:03:42.257Z,1015.04
2022-10-04T05:04:42.209Z,1015.04
2022-10-04T05:05:42.201Z,1015.06
2022-10-04T05:06:42.178Z,1015.08
2022-10-04T05:07:42.166Z,1015.04
2022-10-04T05:08:42.162Z,1015.11
2022-10-04T05:09:42.140Z,1015.11
2022-10-04T05:10:42.258Z,1015.12
2022-10-04T05:11:42.423Z,1015.14
2022-10-04T05:12:42.149Z,1015.12
2022-10-04T05:13:42.100Z,1015.09
2022-10-04T05:14:42.091Z,1015.05
2022-10-04T05:15:42.071Z,1015.11
2022-10-04T05:16:42.182Z,1015.11
2022-10-04T05:17:42.058Z,1014.99
2022-10-04T05:18:42.046Z,1015.07
2022-10-04T05:19:42.049Z,1015.08
2022-10-04T05:20:42.018Z,1015.11
2022-10-04T05:21:42.964Z,1015.10
2022-10-04T05:22:42.004Z,1015.11
2022-10-04T05:23:41.983Z,1015.07
2022-10-04T05:24:41.973Z,1015.08
2022-10-04T05:25:41.992Z,1015.11
2022-10-04T05:26:41.959Z,1015.06
2022-10-04T05:27:42.047Z,1015.06
2022-10-04T05:28:41.927Z,1015.04
2022-10-04T05:29:41.915Z,1015.06
2022-10-04T05:30:41.906Z,1015.03
2022-10-04T05:31:42.225Z,1015.05
2022-10-04T05:32:41.909Z,1015.08
2022-10-04T05:33:41.876Z,1015.06
2022-10-04T05:34:41.857Z,1015.07
2022-10-04T05:35:41.861Z,1015.10
2022-10-04T05:36:41.845Z,1015.04
2022-10-04T05:37:41.830Z,1015.09
2022-10-04T05:38:41.810Z,1015.03
2022-10-04T05:39:41.801Z,1015.00
2022-10-04T05:40:41.792Z,1014.99
2022-10-04T05:41:41.804Z,1015.03
2022-10-04T05:42:41.783Z,1015.09
2022-10-04T05:43:41.769Z,1015.05
2022-10-04T05:44:41.747Z,1015.05
2022-10-04T05:45:41.772Z,1015.12
2022-10-04T05:46:44.099Z,1015.03
2022-10-04T05:47:41.720Z,1015.07
2022-10-04T05:48:41.700Z,1015.10
2022-10-04T05:49:41.698Z,1015.06
2022-10-04T05:50:41.676Z,1015.01
2022-10-04T05:51:42.010Z,1015.00
2022-10-04T05:52:41.656Z,1014.99
2022-10-04T05:53:41.639Z,1015.08
2022-10-04T05:54:41.666Z,1015.00
2022-10-04T05:55:41.638Z,1015.06
2022-10-04T05:56:41.605Z,1015.08
2022-10-04T05:57:41.603Z,1015.12
2022-10-04T05:58:41.630Z,1015.14
2022-10-04T05:59:41.598Z,1015.04
2022-10-04T06:00:41.561Z,1015.04
2022-10-04T06:01:41.872Z,1015.07
2022-10-04T06:02:41.571Z,1015.09
2022-10-04T06:03:41.536Z,1015.14
2022-10-04T06:04:41.536Z,1015.18
2022-10-04T06:05:41.504Z,1015.13
2022-10-04T06:06:41.497Z,1015.12
2022-10-04T06:07:41.503Z,1015.13
2022-10-04T06:08:41.474Z,1015.12
2022-10-04T06:09:41.564Z,1015.14
2022-10-04T06:10:41.447Z,1015.14
2022-10-04T06:11:41.865Z,1015.09
2022-10-04T06:12:44.394Z,1015.03
2022-10-04T06:13:41.415Z,1015.01
2022-10-04T06:14:41.411Z,1014.98
2022-10-04T06:15:41.418Z,1015.02
2022-10-04T06:16:41.534Z,1015.03
2022-10-04T06:17:41.368Z,1015.04
2022-10-04T06:18:41.390Z,1015.05
2022-10-04T06:19:41.389Z,1015.03
2022-10-04T06:20:41.347Z,1015.01
2022-10-04T06:21:41.658Z,1015.02
2022-10-04T06:22:41.315Z,1015.06
2022-10-04T06:23:41.298Z,1015.01
2022-10-04T06:24:41.290Z,1015.02
2022-10-04T06:25:41.323Z,1015.04
2022-10-04T06:26:41.273Z,1015.00
2022-10-04T06:27:41.253Z,1014.96
2022-10-04T06:28:41.259Z,1014.97
2022-10-04T06:29:41.228Z,1015.04
2022-10-04T06:30:41.343Z,1015.07
2022-10-04T06:31:41.623Z,1015.05
2022-10-04T06:32:41.206Z,1015.08
2022-10-04T06:33:41.190Z,1015.08
2022-10-04T06:34:41.182Z,1015.10
2022-10-04T06:35:41.198Z,1015.09
2022-10-04T06:36:41.160Z,1015.01
2022-10-04T06:37:41.167Z,1015.04
2022-10-04T06:38:41.128Z,1015.06
2022-10-04T06:39:41.130Z,1015.02
2022-10-04T06:40:41.234Z,1015.03
2022-10-04T06:41:41.474Z,1014.99
2022-10-04T06:42:41.090Z,1014.99
2022-10-04T06:43:41.072Z,1014.93
2022-10-04T06:44:44.371Z,1014.90
2022-10-04T06:45:42.107Z,1014.93
2022-10-04T06:46:41.056Z,1014.95
2022-10-04T06:47:41.043Z,1015.03
2022-10-04T06:48:41.014Z,1015.06
2022-10-04T06:49:40.998Z,1015.02
2022-10-04T06:50:40.997Z,1015.08
2022-10-04T06:51:41.291Z,1015.10
2022-10-04T06:52:40.977Z,1015.10
2022-10-04T06:53:40.955Z,1015.13
2022-10-04T06:54:40.946Z,1015.14
2022-10-04T06:55:40.955Z,1015.16
2022-10-04T06:56:40.925Z,1015.21
2022-10-04T06:57:40.933Z,1015.23
2022-10-04T06:58:40.906Z,1015.22
2022-10-04T06:59:40.887Z,1015.21
2022-10-04T07:00:40.879Z,1015.20
2022-10-04T07:01:41.090Z,1015.24
2022-10-04T07:02:40.980Z,1015.23
2022-10-04T07:03:40.863Z,1015.25
2022-10-04T07:05:07.086Z,1015.30
2022-10-04T07:05:41.830Z,1015.30
2022-10-04T07:06:40.844Z,1015.23
2022-10-04T07:07:40.797Z,1015.26
2022-10-04T07:08:40.795Z,1015.16
2022-10-04T07:09:40.799Z,1015.14
2022-10-04T07:10:40.774Z,1015.16
2022-10-04T07:11:41.034Z,1015.17
2022-10-04T07:12:40.759Z,1015.16
2022-10-04T07:13:40.729Z,1015.16
2022-10-04T07:14:40.723Z,1015.25
2022-10-04T07:15:40.726Z,1015.23
2022-10-04T07:16:40.766Z,1015.20
2022-10-04T07:17:40.698Z,1015.23
2022-10-04T07:18:40.694Z,1015.28
2022-10-04T07:19:40.679Z,1015.26
2022-10-04T07:22:08.237Z,1015.29
2022-10-04T07:23:08.198Z,1015.33
2022-10-04T07:24:08.170Z,1015.31
2022-10-04T07:25:08.166Z,1015.32
2022-10-04T07:26:08.158Z,1015.28
2022-10-04T07:27:08.147Z,1015.24
2022-10-04T07:28:08.153Z,1015.24
2022-10-04T07:29:08.131Z,1015.26
2022-10-04T07:30:08.115Z,1015.29
2022-10-04T07:31:08.139Z,1015.19
2022-10-04T07:32:08.087Z,1015.38
2022-10-04T07:33:08.076Z,1015.30
2022-10-04T07:34:08.083Z,1015.35
2022-10-04T07:35:08.074Z,1015.30
2022-10-04T07:36:08.046Z,1015.36
2022-10-04T07:37:08.040Z,1015.33
2022-10-04T07:38:08.029Z,1015.35
2022-10-04T07:39:08.037Z,1015.38
2022-10-04T07:40:08.030Z,1015.39
2022-10-04T07:41:07.993Z,1015.38
2022-10-04T07:42:07.974Z,1015.40
2022-10-04T07:43:07.961Z,1015.41
2022-10-04T07:44:07.957Z,1015.43
2022-10-04T07:45:07.951Z,1015.32
2022-10-04T07:46:08.060Z,1015.38
2022-10-04T07:47:07.920Z,1015.35
2022-10-04T07:48:07.917Z,1015.44
2022-10-04T07:49:07.898Z,1015.43
2022-10-04T07:50:07.908Z,1015.41
2022-10-04T07:51:07.907Z,1015.53
2022-10-04T07:52:07.883Z,1015.45
2022-10-04T07:53:09.663Z,1015.38
2022-10-04T07:54:07.848Z,1015.36
2022-10-04T07:55:07.834Z,1015.39
2022-10-04T07:56:07.845Z,1015.42
2022-10-04T07:57:07.825Z,1015.43
2022-10-04T07:58:07.797Z,1015.38
2022-10-04T07:59:07.789Z,1015.37
2022-10-04T08:00:07.779Z,1015.37
2022-10-04T08:01:07.766Z,1015.39
2022-10-04T08:02:07.864Z,1015.43
2022-10-04T08:03:07.834Z,1015.34
2022-10-04T08:04:07.737Z,1015.31
2022-10-04T08:05:07.722Z,1015.32
2022-10-04T08:06:07.713Z,1015.25
2022-10-04T08:07:15.273Z,1015.29
2022-10-04T08:08:07.687Z,1015.28
2022-10-04T08:09:07.688Z,1015.22
2022-10-04T08:10:07.658Z,1015.21
2022-10-04T08:11:07.660Z,1015.26
2022-10-04T08:12:15.062Z,1015.19
2022-10-04T08:13:07.637Z,1015.25
2022-10-04T08:14:07.621Z,1015.19
2022-10-04T08:15:07.649Z,1015.19
2022-10-04T08:16:07.712Z,1015.27
2022-10-04T08:17:09.828Z,1015.29
2022-10-04T08:18:08.583Z,1015.24
2022-10-04T08:19:07.565Z,1015.22
2022-10-04T08:20:07.555Z,1015.19
2022-10-04T08:21:07.543Z,1015.21
2022-10-04T08:22:07.539Z,1015.18
2022-10-04T08:23:07.580Z,1015.16
2022-10-04T08:24:07.508Z,1015.17
2022-10-04T08:25:07.500Z,1015.08
2022-10-04T08:26:07.492Z,1015.07
2022-10-04T08:27:07.477Z,1015.04
2022-10-04T08:28:07.529Z,1015.05
2022-10-04T08:29:07.458Z,1015.03
2022-10-04T08:30:07.487Z,1015.01
2022-10-04T08:31:07.485Z,1015.02
2022-10-04T08:32:07.435Z,1015.03
2022-10-04T08:33:07.412Z,1015.05
2022-10-04T08:34:07.414Z,1015.07
2022-10-04T08:35:07.385Z,1015.11
2022-10-04T08:36:07.387Z,1015.10
2022-10-04T08:37:07.389Z,1015.10
2022-10-04T08:38:07.361Z,1015.00
2022-10-04T08:39:07.492Z,1015.04
2022-10-04T08:40:12.001Z,1014.99
2022-10-04T08:41:08.349Z,1014.94
2022-10-04T08:42:07.335Z,1015.06
2022-10-04T08:43:07.300Z,1015.02
2022-10-04T08:44:07.292Z,1014.98
2022-10-04T08:45:07.283Z,1014.96
2022-10-04T08:46:07.324Z,1014.93
2022-10-04T08:47:07.293Z,1014.93
2022-10-04T08:48:07.246Z,1014.95
2022-10-04T08:49:07.227Z,1014.93
2022-10-04T08:50:07.233Z,1014.88
2022-10-04T08:51:07.227Z,1014.99
2022-10-04T08:52:07.199Z,1014.94
2022-10-04T08:53:10.790Z,1015.00
2022-10-04T08:54:07.199Z,1014.97
2022-10-04T08:55:07.193Z,1014.98
2022-10-04T08:56:07.156Z,1014.98
2022-10-04T08:57:08.044Z,1014.92
2022-10-04T08:58:07.151Z,1014.99
2022-10-04T08:59:07.116Z,1014.99
2022-10-04T09:00:07.113Z,1014.93
2022-10-04T09:01:07.172Z,1014.87
2022-10-04T09:02:07.105Z,1014.88
2022-10-04T09:03:07.157Z,1014.91
2022-10-04T09:04:07.077Z,1014.89
2022-10-04T09:05:07.065Z,1014.95
2022-10-04T09:06:07.048Z,1014.88
2022-10-04T09:07:07.032Z,1014.88
2022-10-04T09:08:07.034Z,1014.84
2022-10-04T09:09:07.015Z,1014.95
2022-10-04T09:10:07.004Z,1014.97
2022-10-04T09:11:07.007Z,1014.95
2022-10-04T09:12:06.974Z,1014.87
2022-10-04T09:13:06.976Z,1014.84
2022-10-04T09:14:06.956Z,1014.84
2022-10-04T09:15:06.939Z,1014.83
2022-10-04T09:16:07.074Z,1014.82
2022-10-04T09:17:06.914Z,1014.85
2022-10-04T09:18:06.912Z,1014.86
2022-10-04T09:19:06.895Z,1014.85
2022-10-04T09:20:33.284Z,1014.84
2022-10-04T09:21:07.880Z,1014.81
2022-10-04T09:22:06.862Z,1014.79
2022-10-04T09:23:06.871Z,1014.81
2022-10-04T09:24:06.886Z,1014.77
2022-10-04T09:25:06.850Z,1014.76
2022-10-04T09:26:06.829Z,1014.77
2022-10-04T09:27:06.899Z,1014.76
2022-10-04T09:28:06.847Z,1014.73
2022-10-04T09:29:06.794Z,1014.75
2022-10-04T09:30:06.777Z,1014.66
2022-10-04T09:31:06.870Z,1014.65
2022-10-04T09:32:06.757Z,1014.74
2022-10-04T09:33:06.761Z,1014.70
2022-10-04T09:34:06.735Z,1014.74
2022-10-04T09:35:06.721Z,1014.77
2022-10-04T09:36:06.707Z,1014.77
2022-10-04T09:37:06.694Z,1014.76
2022-10-04T09:38:06.689Z,1014.77
2022-10-04T09:39:29.016Z,1014.73
2022-10-04T09:40:07.686Z,1014.70
2022-10-04T09:41:06.673Z,1014.75
2022-10-04T09:42:06.649Z,1014.71
2022-10-04T09:43:06.694Z,1014.76
2022-10-04T09:44:06.650Z,1014.73
2022-10-04T09:45:06.624Z,1014.71
2022-10-04T09:46:06.636Z,1014.74
2022-10-04T09:47:06.583Z,1014.72
2022-10-04T09:48:06.585Z,1014.68
2022-10-04T09:49:06.564Z,1014.66
2022-10-04T09:50:06.564Z,1014.68
2022-10-04T09:51:06.538Z,1014.69
2022-10-04T09:52:06.542Z,1014.70
2022-10-04T09:53:06.517Z,1014.71
2022-10-04T09:54:06.504Z,1014.70
2022-10-04T09:55:06.538Z,1014.71
2022-10-04T09:56:06.485Z,1014.69
2022-10-04T09:57:06.465Z,1014.70
2022-10-04T09:58:06.459Z,1014.68
2022-10-04T09:59:06.483Z,1014.74
2022-10-04T10:00:06.447Z,1014.69
2022-10-04T10:01:06.424Z,1014.68
2022-10-04T10:02:06.458Z,1014.77
2022-10-04T10:03:06.446Z,1014.74
2022-10-04T10:04:06.394Z,1014.65
2022-10-04T10:05:06.402Z,1014.64
2022-10-04T10:06:06.366Z,1014.69
2022-10-04T10:07:06.371Z,1014.67
2022-10-04T10:08:06.347Z,1014.63
2022-10-04T10:09:06.343Z,1014.66
2022-10-04T10:10:06.348Z,1014.63
2022-10-04T10:11:06.309Z,1014.69
2022-10-04T10:12:06.331Z,1014.68
2022-10-04T10:13:06.294Z,1014.74
2022-10-04T10:14:06.279Z,1014.73
2022-10-04T10:15:06.285Z,1014.70
2022-10-04T10:16:06.379Z,1014.69
2022-10-04T10:17:06.246Z,1014.69
2022-10-04T10:18:06.245Z,1014.72
2022-10-04T10:19:06.219Z,1014.73
2022-10-04T10:20:06.211Z,1014.70
2022-10-04T10:21:06.425Z,1014.75
2022-10-04T10:22:06.359Z,1014.72
2022-10-04T10:23:06.185Z,1014.76
2022-10-04T10:24:06.172Z,1014.78
2022-10-04T10:25:06.150Z,1014.79
2022-10-04T10:26:06.147Z,1014.76
2022-10-04T10:27:06.136Z,1014.80
2022-10-04T10:28:06.137Z,1014.78
2022-10-04T10:29:06.124Z,1014.80
2022-10-04T10:30:06.100Z,1014.75
2022-10-04T10:31:06.213Z,1014.81
2022-10-04T10:32:06.088Z,1014.75
2022-10-04T10:33:06.063Z,1014.68
2022-10-04T10:34:06.082Z,1014.72
2022-10-04T10:35:06.046Z,1014.69
2022-10-04T10:36:06.038Z,1014.75
2022-10-04T10:37:06.026Z,1014.73
2022-10-04T10:38:06.016Z,1014.73
2022-10-04T10:39:06.004Z,1014.75
2022-10-04T10:40:06.010Z,1014.77
2022-10-04T10:41:05.978Z,1014.72
2022-10-04T10:42:05.988Z,1014.73
2022-10-04T10:49:01.989Z,1014.62
2022-10-04T10:50:01.952Z,1014.63
2022-10-04T10:51:01.936Z,1014.59
2022-10-04T10:52:01.920Z,1014.61
2022-10-04T10:53:01.916Z,1014.66
2022-10-04T10:54:01.926Z,1014.57
2022-10-04T10:55:01.938Z,1014.75
2022-10-04T10:56:01.882Z,1014.69
2022-10-04T10:57:01.871Z,1014.65
2022-10-04T10:58:01.883Z,1014.70
2022-10-04T10:59:01.853Z,1014.64
2022-10-04T11:00:01.856Z,1014.57
2022-10-04T11:01:01.827Z,1014.54
2022-10-04T11:02:01.966Z,1014.55
2022-10-04T11:03:12.800Z,1014.52
2022-10-04T11:04:02.861Z,1014.56
2022-10-04T11:05:01.801Z,1014.51
2022-10-04T11:06:01.793Z,1014.52
2022-10-04T11:07:01.757Z,1014.46
2022-10-04T11:08:01.742Z,1014.49
2022-10-04T11:09:01.737Z,1014.45
2022-10-04T11:10:01.724Z,1014.45
2022-10-04T11:11:01.728Z,1014.51
2022-10-04T11:12:01.720Z,1014.45
2022-10-04T11:13:01.688Z,1014.43
2022-10-04T11:14:01.674Z,1014.35
2022-10-04T11:15:01.669Z,1014.33
2022-10-04T11:16:01.740Z,1014.36
2022-10-04T11:17:01.658Z,1014.33
2022-10-04T11:18:01.633Z,1014.31
2022-10-04T11:19:01.622Z,1014.40
2022-10-04T11:20:01.622Z,1014.35
2022-10-04T11:21:01.629Z,1014.29
2022-10-04T11:22:01.604Z,1014.20
2022-10-04T11:23:01.590Z,1014.17
2022-10-04T11:24:01.568Z,1014.21
2022-10-04T11:25:01.554Z,1014.20
2022-10-04T11:26:01.548Z,1014.20
2022-10-04T11:27:01.544Z,1014.25
2022-10-04T11:28:01.586Z,1014.23
2022-10-04T11:29:01.514Z,1014.27
2022-10-04T11:30:01.494Z,1014.25
2022-10-04T11:31:01.605Z,1014.27
2022-10-04T11:32:01.483Z,1014.19
2022-10-04T11:33:01.483Z,1014.21
2022-10-04T11:34:01.449Z,1014.19
2022-10-04T11:35:01.446Z,1014.17
2022-10-04T11:36:01.428Z,1014.14
2022-10-04T11:37:01.444Z,1014.24
2022-10-04T11:38:01.415Z,1014.08
2022-10-04T11:39:01.408Z,1014.11
2022-10-04T11:40:01.393Z,1014.06
2022-10-04T11:41:01.391Z,1014.11
2022-10-04T11:42:01.358Z,1014.06
2022-10-04T11:43:01.369Z,1014.15
2022-10-04T11:44:01.355Z,1014.20
2022-10-04T11:45:01.338Z,1014.09
2022-10-04T11:46:01.324Z,1014.17
2022-10-04T11:47:01.403Z,1014.10
2022-10-04T11:48:01.293Z,1014.09
2022-10-04T11:49:01.308Z,1014.04
2022-10-04T11:50:01.277Z,1014.06
2022-10-04T11:51:01.266Z,1014.11
2022-10-04T11:52:02.477Z,1014.07
2022-10-04T11:53:01.259Z,1014.05
2022-10-04T11:54:01.229Z,1014.05
2022-10-04T11:55:01.223Z,1014.01
2022-10-04T11:56:01.215Z,1014.01
2022-10-04T11:57:01.207Z,1013.98
2022-10-04T11:58:01.192Z,1013.84
2022-10-04T11:59:01.175Z,1013.87
2022-10-04T12:00:01.168Z,1013.85
2022-10-04T12:01:01.156Z,1013.80
2022-10-04T12:02:01.138Z,1013.81
2022-10-04T12:03:01.128Z,1013.83
2022-10-04T12:04:01.280Z,1013.84
2022-10-04T12:05:01.170Z,1013.88
2022-10-04T12:06:01.091Z,1013.86
2022-10-04T12:07:01.092Z,1013.83
2022-10-04T12:08:01.073Z,1013.86
2022-10-04T12:09:01.082Z,1013.79
2022-10-04T12:10:01.403Z,1013.79
2022-10-04T12:11:01.034Z,1013.76
2022-10-04T12:12:01.032Z,1013.77
2022-10-04T12:13:01.051Z,1013.72